createdAt,value
2022-12-25T00:02:25.218Z,3.78
2022-12-25T00:04:53.343Z,3.58
2022-12-25T00:07:20.629Z,4.43
2022-12-25T00:09:48.145Z,4.85
2022-12-25T00:12:15.437Z,4.82
2022-12-25T00:14:42.818Z,5.53
2022-12-25T00:17:10.260Z,5.20
2022-12-25T00:19:37.793Z,5.53
2022-12-25T00:22:05.071Z,5.45
2022-12-25T00:24:32.643Z,5.00
2022-12-25T00:26:59.917Z,6.50
2022-12-25T00:29:27.368Z,5.22
2022-12-25T00:31:54.954Z,4.57
2022-12-25T00:34:22.486Z,5.07
2022-12-25T00:36:52.481Z,4.60
2022-12-25T00:42:05.034Z,5.40
2022-12-25T00:44:32.996Z,5.85
2022-12-25T00:47:03.566Z,5.82
2022-12-25T00:49:31.156Z,5.63
2022-12-25T00:52:03.762Z,5.63
2022-12-25T00:54:33.640Z,5.50
2022-12-25T00:57:01.369Z,5.78
2022-12-25T00:59:32.510Z,6.25
2022-12-25T01:01:59.758Z,6.05
2022-12-25T01:04:27.359Z,5.53
2022-12-25T01:06:54.594Z,5.82
2022-12-25T01:09:21.954Z,5.13
2022-12-25T01:11:51.425Z,5.50
2022-12-25T01:14:18.960Z,6.55
2022-12-25T01:16:46.120Z,5.38
2022-12-25T01:19:13.836Z,5.57
2022-12-25T01:21:41.032Z,4.97
2022-12-25T01:24:08.636Z,6.00
2022-12-25T01:26:35.996Z,5.95
2022-12-25T01:29:03.542Z,6.32
2022-12-25T01:31:30.766Z,6.28
2022-12-25T01:33:58.573Z,4.82
2022-12-25T01:36:26.996Z,5.00
2022-12-25T01:38:54.711Z,6.07
2022-12-25T01:41:24.380Z,5.10
2022-12-25T01:43:57.717Z,5.40
2022-12-25T01:46:25.056Z,5.50
2022-12-25T01:48:54.966Z,5.00
2022-12-25T01:51:24.451Z,5.72
2022-12-25T01:53:54.918Z,6.15
2022-12-25T01:56:25.254Z,6.07
2022-12-25T01:58:57.448Z,6.15
2022-12-25T02:01:26.862Z,5.38
2022-12-25T02:04:02.681Z,5.63
2022-12-25T02:06:30.133Z,6.45
2022-12-25T02:08:59.233Z,6.15
2022-12-25T02:11:26.431Z,6.15
2022-12-25T02:13:53.960Z,5.70
2022-12-25T02:16:24.881Z,5.38
2022-12-25T02:19:05.936Z,6.70
2022-12-25T02:21:46.710Z,6.00
2022-12-25T02:24:44.999Z,5.70
2022-12-25T02:27:37.424Z,5.32
2022-12-25T02:30:05.246Z,6.10
2022-12-25T02:32:51.523Z,6.03
2022-12-25T02:35:25.308Z,5.88
2022-12-25T02:38:13.139Z,5.53
2022-12-25T02:40:52.533Z,5.93
2022-12-25T02:43:32.508Z,5.97
2022-12-25T02:46:04.177Z,6.40
2022-12-25T02:48:35.002Z,6.80
2022-12-25T02:51:06.248Z,6.32
2022-12-25T02:53:34.692Z,7.88
2022-12-25T02:56:02.631Z,6.88
2022-12-25T02:58:31.348Z,6.47
2022-12-25T03:03:40.489Z,6.53
2022-12-25T03:06:09.094Z,7.68
2022-12-25T03:08:40.680Z,6.80
2022-12-25T03:11:11.429Z,6.65
2022-12-25T03:13:41.502Z,7.38
2022-12-25T03:16:09.080Z,7.80
2022-12-25T03:18:36.268Z,7.43
2022-12-25T03:21:03.942Z,7.03
2022-12-25T03:23:37.357Z,5.82
2022-12-25T03:28:32.087Z,7.57
2022-12-25T03:31:18.033Z,6.63
2022-12-25T03:34:04.896Z,7.00
2022-12-25T03:36:39.490Z,7.05
2022-12-25T03:39:16.004Z,6.63
2022-12-25T03:41:48.991Z,7.15
2022-12-25T03:44:28.032Z,7.82
2022-12-25T03:47:05.409Z,6.55
2022-12-25T03:50:01.231Z,7.28
2022-12-25T03:52:29.905Z,7.22
2022-12-25T03:55:03.694Z,7.18
2022-12-25T03:57:35.101Z,7.30
2022-12-25T04:00:05.089Z,6.75
2022-12-25T04:02:32.992Z,8.10
2022-12-25T04:05:00.333Z,8.70
2022-12-25T04:07:27.998Z,9.05
2022-12-25T04:09:55.120Z,9.23
2022-12-25T04:12:22.739Z,10.50
2022-12-25T04:14:49.905Z,10.52
2022-12-25T04:17:17.365Z,11.00
2022-12-25T04:19:44.462Z,11.82
2022-12-25T04:22:12.069Z,12.15
2022-12-25T04:24:41.533Z,11.52
2022-12-25T04:27:08.914Z,11.77
2022-12-25T04:29:36.237Z,11.80
2022-12-25T04:32:03.629Z,12.52
2022-12-25T04:34:30.815Z,10.98
2022-12-25T04:37:00.732Z,15.00
2022-12-25T04:39:27.808Z,14.38
2022-12-25T04:41:55.152Z,15.20
2022-12-25T04:44:22.489Z,16.02
2022-12-25T04:46:52.258Z,17.85
2022-12-25T04:49:19.389Z,16.88
2022-12-25T04:51:46.946Z,16.00
2022-12-25T04:54:16.310Z,15.48
2022-12-25T04:56:45.955Z,15.43
2022-12-25T04:59:13.553Z,15.82
2022-12-25T05:01:41.265Z,16.02
2022-12-25T05:04:08.507Z,15.15
2022-12-25T05:06:38.466Z,14.32
2022-12-25T05:09:05.837Z,14.00
2022-12-25T05:11:33.336Z,16.27
2022-12-25T05:14:00.612Z,14.13
2022-12-25T05:16:28.328Z,13.90
2022-12-25T05:18:55.511Z,13.05
2022-12-25T05:21:23.541Z,12.20
2022-12-25T05:23:51.950Z,11.38
2022-12-25T05:26:22.141Z,12.45
2022-12-25T05:28:50.092Z,12.13
2022-12-25T05:31:18.171Z,12.70
2022-12-25T05:33:45.851Z,13.65
2022-12-25T05:36:13.346Z,13.32
2022-12-25T05:38:40.588Z,12.45
2022-12-25T05:41:07.993Z,12.00
2022-12-25T05:43:35.185Z,12.15
2022-12-25T05:46:10.035Z,12.88
2022-12-25T05:48:39.920Z,12.43
2022-12-25T05:51:10.107Z,11.30
2022-12-25T05:53:37.971Z,11.98
2022-12-25T05:56:07.149Z,11.68
2022-12-25T05:58:36.378Z,10.98
2022-12-25T06:01:04.343Z,12.23
2022-12-25T06:03:31.808Z,12.90
2022-12-25T06:05:59.350Z,12.27
2022-12-25T06:08:26.448Z,12.82
2022-12-25T06:10:53.959Z,11.75
2022-12-25T06:13:21.052Z,12.20
2022-12-25T06:15:48.527Z,11.07
2022-12-25T06:18:15.779Z,11.20
2022-12-25T06:20:45.839Z,12.20
2022-12-25T06:23:13.116Z,11.75
2022-12-25T06:25:40.985Z,11.40
2022-12-25T06:28:08.424Z,10.80
2022-12-25T06:30:38.445Z,10.68
2022-12-25T06:33:05.795Z,10.38
2022-12-25T06:35:38.195Z,13.63
2022-12-25T06:38:05.407Z,9.07
2022-12-25T06:40:34.161Z,12.30
2022-12-25T06:43:01.229Z,11.38
2022-12-25T06:45:28.871Z,11.80
2022-12-25T06:47:56.178Z,11.23
2022-12-25T06:50:25.815Z,11.52
2022-12-25T06:52:53.124Z,12.45
2022-12-25T06:55:20.738Z,13.13
2022-12-25T06:57:47.851Z,13.18
2022-12-25T07:00:15.557Z,14.48
2022-12-25T07:02:48.283Z,16.20
2022-12-25T07:05:16.158Z,15.52
2022-12-25T07:07:43.705Z,17.70
2022-12-25T07:10:11.453Z,19.30
2022-12-25T07:12:38.613Z,19.38
2022-12-25T07:15:06.824Z,17.83
2022-12-25T07:17:34.869Z,16.77
2022-12-25T07:20:02.489Z,24.40
2022-12-25T07:22:30.001Z,21.35
2022-12-25T07:24:57.539Z,20.67
2022-12-25T07:27:24.789Z,22.80
2022-12-25T07:29:52.296Z,22.77
2022-12-25T07:32:19.553Z,21.38
2022-12-25T07:34:47.104Z,20.13
2022-12-25T07:37:14.352Z,18.80
2022-12-25T07:39:41.959Z,16.75
2022-12-25T07:42:11.374Z,15.95
2022-12-25T07:44:39.171Z,16.50
2022-12-25T07:47:08.561Z,17.88
2022-12-25T07:49:36.613Z,16.52
2022-12-25T07:52:04.185Z,15.73
2022-12-25T07:54:31.607Z,16.83
2022-12-25T07:57:01.354Z,17.92
2022-12-25T07:59:28.967Z,19.25
2022-12-25T08:01:56.429Z,16.15
2022-12-25T08:04:24.086Z,18.35
2022-12-25T08:06:51.516Z,19.63
2022-12-25T08:09:18.933Z,17.90
2022-12-25T08:11:47.042Z,18.17
2022-12-25T08:14:15.637Z,18.00
2022-12-25T08:16:42.845Z,20.00
2022-12-25T08:19:10.840Z,17.90
2022-12-25T08:21:38.466Z,17.73
2022-12-25T08:24:08.329Z,19.73
2022-12-25T08:26:35.650Z,20.60
2022-12-25T08:29:03.478Z,21.35
2022-12-25T08:31:31.203Z,19.20
2022-12-25T08:34:01.963Z,19.00
2022-12-25T08:36:29.399Z,19.88
2022-12-25T08:39:02.697Z,18.63
2022-12-25T08:41:33.892Z,19.70
2022-12-25T08:44:01.291Z,19.02
2022-12-25T08:46:28.472Z,18.77
2022-12-25T08:48:56.897Z,18.73
2022-12-25T08:51:25.842Z,19.50
2022-12-25T08:53:58.084Z,19.60
2022-12-25T08:56:26.056Z,18.77
2022-12-25T08:58:53.494Z,21.55
2022-12-25T09:01:20.778Z,19.38
2022-12-25T09:03:48.567Z,18.48
2022-12-25T09:06:16.415Z,19.30
2022-12-25T09:08:49.018Z,17.20
2022-12-25T09:11:17.615Z,14.07
2022-12-25T09:13:45.473Z,11.45
2022-12-25T09:16:18.295Z,9.13
2022-12-25T09:18:46.555Z,9.25
2022-12-25T09:21:15.812Z,8.02
2022-12-25T09:23:45.535Z,7.38
2022-12-25T09:26:15.964Z,6.97
2022-12-25T09:28:50.765Z,7.22
2022-12-25T09:31:21.249Z,7.13
2022-12-25T09:33:49.645Z,10.80
2022-12-25T09:36:16.848Z,7.65
2022-12-25T09:38:44.793Z,7.95
2022-12-25T09:41:36.110Z,8.75
2022-12-25T09:44:15.841Z,8.68
2022-12-25T09:46:53.963Z,9.80
2022-12-25T09:49:44.904Z,12.15
2022-12-25T09:52:16.917Z,10.43
2022-12-25T09:54:50.540Z,14.23
2022-12-25T09:57:17.671Z,12.50
2022-12-25T09:59:47.298Z,12.02
2022-12-25T10:02:47.094Z,11.30
2022-12-25T10:05:43.965Z,11.73
2022-12-25T10:08:30.159Z,11.32
2022-12-25T10:11:04.646Z,11.48
2022-12-25T10:14:04.150Z,12.68
2022-12-25T10:16:31.722Z,9.50
2022-12-25T10:19:03.233Z,10.07
2022-12-25T10:21:34.857Z,8.45
2022-12-25T10:24:17.010Z,7.93
2022-12-25T10:26:45.808Z,7.07
2022-12-25T10:29:19.882Z,7.82
2022-12-25T10:31:50.167Z,6.65
2022-12-25T10:34:17.722Z,7.65
2022-12-25T10:36:46.327Z,7.07
2022-12-25T10:39:23.469Z,7.05
2022-12-25T10:42:10.085Z,6.57
2022-12-25T10:44:37.505Z,7.93
2022-12-25T10:47:05.440Z,8.60
2022-12-25T10:49:39.938Z,8.63
2022-12-25T10:52:27.812Z,7.50
2022-12-25T10:54:56.273Z,7.35
2022-12-25T10:57:26.452Z,7.93
2022-12-25T10:59:56.068Z,8.13
2022-12-25T11:02:35.611Z,8.45
2022-12-25T11:05:09.358Z,9.80
2022-12-25T11:07:47.206Z,10.77
2022-12-25T11:10:40.807Z,10.02
2022-12-25T11:13:19.816Z,8.93
2022-12-25T11:16:00.637Z,9.48
2022-12-25T11:18:32.938Z,8.93
2022-12-25T11:21:15.315Z,8.75
2022-12-25T11:23:48.652Z,9.93
2022-12-25T11:26:19.517Z,9.80
2022-12-25T11:28:54.231Z,10.10
2022-12-25T11:31:25.647Z,11.57
2022-12-25T11:34:07.203Z,9.90
2022-12-25T11:36:48.890Z,10.85
2022-12-25T11:39:23.988Z,12.25
2022-12-25T11:42:06.934Z,13.27
2022-12-25T11:44:57.021Z,13.45
2022-12-25T11:47:37.607Z,12.60
2022-12-25T11:50:31.331Z,12.48
2022-12-25T11:53:02.478Z,12.02
2022-12-25T11:55:47.274Z,10.77
2022-12-25T11:58:23.572Z,11.98
2022-12-25T12:00:54.459Z,10.65
2022-12-25T12:03:33.703Z,10.38
2022-12-25T12:06:38.622Z,9.48
2022-12-25T12:09:22.453Z,9.27
2022-12-25T12:12:33.177Z,9.70
2022-12-25T12:15:21.778Z,8.40
2022-12-25T12:17:49.687Z,10.50
2022-12-25T12:20:32.299Z,10.18
2022-12-25T12:23:03.214Z,10.30
2022-12-25T12:25:31.181Z,7.68
2022-12-25T12:28:05.372Z,8.88
2022-12-25T12:30:36.916Z,9.85
2022-12-25T12:33:08.070Z,8.75
2022-12-25T12:35:39.859Z,8.05
2022-12-25T12:38:28.024Z,8.20
2022-12-25T12:41:07.610Z,7.90
2022-12-25T12:43:52.995Z,9.13
2022-12-25T12:46:31.594Z,8.55
2022-12-25T12:49:25.259Z,8.00
2022-12-25T12:52:32.422Z,8.30
2022-12-25T12:55:11.735Z,8.02
2022-12-25T12:57:39.788Z,8.80
2022-12-25T13:00:16.058Z,9.02
2022-12-25T13:03:02.348Z,8.25
2022-12-25T13:05:48.884Z,9.15
2022-12-25T13:08:49.203Z,7.47
2022-12-25T13:11:23.734Z,7.80
2022-12-25T13:13:53.962Z,7.85
2022-12-25T13:16:29.300Z,7.43
2022-12-25T13:18:57.118Z,7.15
2022-12-25T13:21:28.103Z,8.20
2022-12-25T13:24:00.535Z,7.00
2022-12-25T13:26:29.615Z,8.25
2022-12-25T13:28:57.066Z,7.55
2022-12-25T13:31:27.120Z,8.73
2022-12-25T13:34:06.443Z,9.10
2022-12-25T13:36:39.982Z,8.55
2022-12-25T13:39:16.228Z,8.52
2022-12-25T13:41:49.067Z,9.55
2022-12-25T13:44:26.278Z,9.35
2022-12-25T13:46:55.915Z,10.80
2022-12-25T13:49:26.627Z,13.23
2022-12-25T13:52:10.985Z,13.02
2022-12-25T13:54:38.590Z,12.07
2022-12-25T13:57:12.244Z,11.80
2022-12-25T13:59:39.629Z,11.55
2022-12-25T14:02:19.199Z,11.43
2022-12-25T14:04:46.706Z,11.20
2022-12-25T14:07:21.036Z,10.55
2022-12-25T14:09:58.295Z,10.80
2022-12-25T14:12:27.579Z,9.25
2022-12-25T14:14:58.530Z,10.00
2022-12-25T14:17:26.428Z,10.57
2022-12-25T14:20:03.813Z,9.98
2022-12-25T14:22:38.969Z,9.20
2022-12-25T14:25:17.057Z,9.82
2022-12-25T14:27:50.676Z,9.38
2022-12-25T14:30:18.686Z,9.90
2022-12-25T14:32:50.047Z,10.20
2022-12-25T14:35:23.812Z,11.63
2022-12-25T14:37:56.931Z,10.18
2022-12-25T14:40:32.143Z,11.20
2022-12-25T14:43:01.041Z,13.57
2022-12-25T14:45:32.866Z,12.82
2022-12-25T14:48:21.233Z,14.40
2022-12-25T14:51:05.114Z,16.15
2022-12-25T14:53:40.923Z,15.30
2022-12-25T14:56:09.316Z,15.95
2022-12-25T14:58:42.780Z,14.20
2022-12-25T15:01:40.935Z,13.48
2022-12-25T15:04:11.620Z,12.10
2022-12-25T15:07:12.145Z,12.68
2022-12-25T15:09:39.671Z,13.52
2022-12-25T15:12:06.819Z,12.57
2022-12-25T15:14:34.192Z,14.32
2022-12-25T15:17:01.908Z,12.68
2022-12-25T15:19:38.303Z,11.35
2022-12-25T15:22:10.057Z,10.25
2022-12-25T15:24:37.603Z,11.73
2022-12-25T15:27:06.088Z,10.18
2022-12-25T15:30:08.458Z,10.30
2022-12-25T15:32:25.776Z,9.18
2022-12-25T15:34:55.994Z,9.35
2022-12-25T15:37:25.558Z,9.95
2022-12-25T15:39:55.506Z,7.72
2022-12-25T15:42:24.228Z,9.55
2022-12-25T15:44:52.586Z,10.40
2022-12-25T15:47:20.172Z,12.70
2022-12-25T15:49:48.020Z,15.40
2022-12-25T15:52:17.964Z,16.35
2022-12-25T15:54:45.592Z,16.10
2022-12-25T15:57:22.301Z,17.83
2022-12-25T15:59:49.894Z,16.00
2022-12-25T16:02:20.157Z,16.30
2022-12-25T16:04:47.908Z,13.82
2022-12-25T16:07:22.955Z,13.88
2022-12-25T16:09:50.677Z,14.20
2022-12-25T16:12:19.564Z,13.43
2022-12-25T16:14:46.968Z,14.60
2022-12-25T16:17:14.861Z,12.70
2022-12-25T16:19:43.032Z,11.43
2022-12-25T16:22:28.393Z,11.18
2022-12-25T16:24:55.878Z,9.48
2022-12-25T16:27:25.425Z,8.70
2022-12-25T16:29:52.832Z,8.80
2022-12-25T16:32:22.383Z,8.38
2022-12-25T16:34:52.004Z,9.70
2022-12-25T16:37:19.374Z,9.88
2022-12-25T16:39:46.987Z,9.50
2022-12-25T16:42:14.249Z,9.63
2022-12-25T16:44:41.784Z,8.98
2022-12-25T16:47:09.161Z,9.98
2022-12-25T16:49:36.543Z,9.43
2022-12-25T16:52:03.774Z,9.48
2022-12-25T16:54:31.240Z,8.98
2022-12-25T16:56:58.327Z,9.68
2022-12-25T16:59:28.819Z,8.25
2022-12-25T17:01:58.682Z,8.38
2022-12-25T17:04:29.768Z,8.25
2022-12-25T17:06:59.394Z,9.13
2022-12-25T17:09:26.947Z,11.35
2022-12-25T17:11:54.136Z,11.23
2022-12-25T17:14:21.524Z,9.75
2022-12-25T17:16:48.733Z,9.40
2022-12-25T17:19:19.347Z,9.50
2022-12-25T17:21:46.928Z,8.10
2022-12-25T17:24:15.090Z,7.10
2022-12-25T17:26:42.499Z,7.88
2022-12-25T17:29:12.834Z,7.10
2022-12-25T17:31:45.617Z,7.95
2022-12-25T17:34:13.114Z,6.90
2022-12-25T17:36:40.275Z,7.22
2022-12-25T17:39:07.881Z,7.28
2022-12-25T17:41:37.565Z,8.23
2022-12-25T17:44:05.201Z,6.53
2022-12-25T17:46:32.982Z,7.03
2022-12-25T17:49:01.530Z,7.35
2022-12-25T17:51:31.869Z,6.65
2022-12-25T17:54:02.291Z,7.78
2022-12-25T17:56:29.704Z,6.95
2022-12-25T17:58:59.416Z,7.13
2022-12-25T18:01:28.201Z,7.43
2022-12-25T18:03:55.887Z,6.97
2022-12-25T18:06:26.534Z,6.13
2022-12-25T18:08:55.527Z,7.57
2022-12-25T18:11:25.467Z,7.13
2022-12-25T18:13:53.022Z,6.95
2022-12-25T18:16:22.429Z,7.78
2022-12-25T18:18:52.495Z,6.68
2022-12-25T18:21:23.725Z,7.72
2022-12-25T18:23:51.613Z,6.93
2022-12-25T18:26:20.235Z,5.60
2022-12-25T18:28:53.113Z,5.32
2022-12-25T18:31:23.450Z,5.07
2022-12-25T18:33:51.346Z,5.22
2022-12-25T18:36:24.499Z,5.90
2022-12-25T18:38:53.800Z,7.35
2022-12-25T18:41:21.951Z,6.35
2022-12-25T18:43:54.238Z,8.27
2022-12-25T18:46:25.345Z,7.35
2022-12-25T18:48:56.897Z,7.63
2022-12-25T18:51:24.753Z,7.65
2022-12-25T18:53:52.132Z,6.93
2022-12-25T18:56:21.722Z,6.30
2022-12-25T18:58:49.367Z,6.70
2022-12-25T19:01:23.925Z,6.63
2022-12-25T19:03:57.212Z,7.20
2022-12-25T19:06:29.696Z,6.97
2022-12-25T19:08:57.699Z,6.60
2022-12-25T19:11:25.040Z,5.85
2022-12-25T19:13:55.094Z,6.13
2022-12-25T19:16:27.298Z,5.25
2022-12-25T19:18:57.060Z,6.05
2022-12-25T19:21:24.340Z,5.70
2022-12-25T19:23:53.537Z,6.45
2022-12-25T19:26:20.856Z,7.15
2022-12-25T19:28:48.346Z,7.40
2022-12-25T19:31:15.406Z,7.40
2022-12-25T19:33:45.341Z,9.13
2022-12-25T19:36:15.048Z,8.30
2022-12-25T19:38:42.955Z,9.20
2022-12-25T19:41:18.383Z,8.80
2022-12-25T19:43:48.022Z,8.70
2022-12-25T19:46:20.882Z,8.63
2022-12-25T19:48:48.856Z,8.85
2022-12-25T19:51:26.460Z,6.78
2022-12-25T19:53:55.112Z,7.50
2022-12-25T19:56:23.349Z,6.80
2022-12-25T19:58:50.921Z,6.75
2022-12-25T20:01:20.435Z,7.00
2022-12-25T20:03:49.207Z,6.68
2022-12-25T20:06:22.700Z,7.60
2022-12-25T20:08:53.014Z,7.18
2022-12-25T20:11:21.669Z,7.30
2022-12-25T20:13:49.277Z,7.35
2022-12-25T20:16:17.003Z,7.03
2022-12-25T20:18:44.748Z,6.93
2022-12-25T20:21:14.907Z,7.05
2022-12-25T20:23:43.849Z,6.80
2022-12-25T20:26:14.576Z,8.07
2022-12-25T20:28:42.404Z,8.00
2022-12-25T20:31:16.820Z,8.23
2022-12-25T20:33:45.041Z,7.50
2022-12-25T20:36:12.771Z,9.27
2022-12-25T20:38:40.728Z,9.98
2022-12-25T20:41:30.049Z,10.98
2022-12-25T20:43:58.307Z,9.45
2022-12-25T20:46:26.297Z,9.27
2022-12-25T20:48:56.366Z,9.35
2022-12-25T20:51:27.018Z,9.13
2022-12-25T20:53:55.315Z,8.82
2022-12-25T20:56:26.856Z,8.63
2022-12-25T20:58:56.457Z,8.55
2022-12-25T21:01:23.948Z,9.05
2022-12-25T21:03:51.947Z,8.35
2022-12-25T21:06:21.928Z,8.32
2022-12-25T21:08:49.656Z,8.50
2022-12-25T21:11:19.691Z,7.53
2022-12-25T21:13:47.529Z,8.00
2022-12-25T21:16:17.993Z,8.30
2022-12-25T21:18:45.596Z,9.20
2022-12-25T21:21:13.268Z,8.73
2022-12-25T21:23:43.070Z,8.77
2022-12-25T21:26:17.053Z,8.38
2022-12-25T21:28:45.115Z,8.48
2022-12-25T21:31:12.497Z,8.02
2022-12-25T21:33:45.978Z,7.63
2022-12-25T21:36:13.379Z,9.45
2022-12-25T21:38:43.400Z,8.18
2022-12-25T21:41:13.182Z,10.57
2022-12-25T21:43:41.733Z,10.60
2022-12-25T21:46:11.935Z,10.15
2022-12-25T21:48:42.639Z,11.63
2022-12-25T21:51:20.110Z,10.88
2022-12-25T21:53:47.717Z,9.10
2022-12-25T21:56:15.038Z,8.90
2022-12-25T21:58:44.833Z,10.38
2022-12-25T22:01:11.953Z,10.30
2022-12-25T22:03:42.986Z,9.57
2022-12-25T22:06:13.709Z,8.20
2022-12-25T22:08:48.711Z,8.20
2022-12-25T22:11:18.584Z,7.85
2022-12-25T22:13:46.074Z,7.90
2022-12-25T22:16:15.760Z,8.25
2022-12-25T22:18:43.197Z,9.50
2022-12-25T22:21:18.784Z,9.40
2022-12-25T22:23:47.062Z,10.50
2022-12-25T22:26:20.450Z,10.43
2022-12-25T22:28:50.588Z,9.05
2022-12-25T22:31:20.057Z,10.52
2022-12-25T22:33:47.500Z,8.00
2022-12-25T22:36:14.763Z,8.95
2022-12-25T22:38:42.959Z,9.50
2022-12-25T22:41:10.171Z,9.32
2022-12-25T22:44:15.298Z,7.90
2022-12-25T22:46:27.716Z,8.35
2022-12-25T22:48:55.283Z,9.10
2022-12-25T22:51:24.782Z,9.05
2022-12-25T22:53:57.496Z,8.18
2022-12-25T22:56:29.075Z,8.70
2022-12-25T22:58:56.762Z,8.68
2022-12-25T23:01:23.909Z,8.43
2022-12-25T23:03:54.741Z,8.00
2022-12-25T23:06:22.129Z,8.30
2022-12-25T23:08:49.810Z,7.38
2022-12-25T23:11:19.504Z,8.93
2022-12-25T23:13:46.859Z,8.57
2022-12-25T23:16:19.339Z,9.60
2022-12-25T23:18:46.745Z,9.50
2022-12-25T23:21:16.085Z,9.20
2022-12-25T23:23:46.206Z,8.43
2022-12-25T23:26:17.251Z,9.38
2022-12-25T23:28:44.728Z,8.45
2022-12-25T23:31:11.898Z,9.27
2022-12-25T23:33:39.466Z,9.90
2022-12-25T23:36:06.916Z,8.60
2022-12-25T23:38:34.355Z,10.20
2022-12-25T23:41:01.586Z,9.45
2022-12-25T23:43:29.113Z,9.70
2022-12-25T23:45:56.257Z,10.93
2022-12-25T23:48:23.761Z,9.30
2022-12-25T23:50:51.104Z,8.65
2022-12-25T23:53:18.493Z,9.05
2022-12-25T23:55:50.055Z,9.02
2022-12-25T23:58:20.992Z,9.02
